| time (UTC) | temp F | wind direction | speed knots | gust knots | rain 1hr in | rain 24hr in | rain mn in | humidity % | barometer mb |
| 20260507010721 | 45 | 341 | 0.0 | 0.0 | 0.00 | 0.39 | 0.39 | 92 | 1009.3 |
| 20260507010218 | 45 | 3 | 0.0 | 0.0 | 0.00 | 0.39 | 0.39 | 92 | 1009.7 |
| 20260507005716 | 45 | 3 | 0.0 | 0.0 | 0.00 | 0.39 | 0.39 | 92 | 1009.7 |
| 20260507005211 | 46 | 3 | 0.0 | 0.0 | 0.00 | 0.39 | 0.39 | 92 | 1009.9 |
| 20260507004708 | 46 | 4 | 0.0 | 0.0 | 0.00 | 0.39 | 0.39 | 91 | 1009.7 |
| 20260507004206 | 46 | 4 | 0.0 | 0.0 | 0.00 | 0.39 | 0.39 | 91 | 1009.4 |
| 20260507003702 | 46 | 4 | 0.0 | 0.0 | 0.00 | 0.39 | 0.39 | 91 | 1009.4 |
| 20260507003157 | 46 | 4 | 0.0 | 0.0 | 0.00 | 0.39 | 0.39 | 91 | 1009.6 |
| 20260507002654 | 46 | 4 | 0.0 | 0.0 | 0.00 | 0.39 | 0.39 | 91 | 1009.2 |
| 20260507002149 | 46 | 1 | 0.0 | 0.0 | 0.00 | 0.39 | 0.39 | 91 | 1009.0 |
| 20260507001647 | 46 | 1 | 0.0 | 0.0 | 0.00 | 0.39 | 0.39 | 90 | 1009.2 |
| 20260507001144 | 46 | 352 | 0.0 | 0.0 | 0.00 | 0.39 | 0.39 | 90 | 1009.3 |
| 20260507000640 | 46 | 354 | 0.0 | 0.0 | 0.00 | 0.39 | 0.39 | 90 | 1009.5 |
| 20260507000135 | 46 | 345 | 0.0 | 0.9 | 0.00 | 0.39 | 0.39 | 90 | 1009.2 |
| 20260506235633 | 46 | 359 | 0.9 | 1.7 | 0.00 | 0.39 | 0.39 | 90 | 1009.1 |
| 20260506235133 | 46 | 357 | 0.9 | 0.9 | 0.00 | 0.39 | 0.39 | 90 | 1009.0 |
| 20260506234631 | 46 | 358 | 0.9 | 0.9 | 0.00 | 0.39 | 0.39 | 90 | 1008.9 |
| 20260506234128 | 46 | 353 | 0.0 | 0.9 | 0.00 | 0.39 | 0.39 | 89 | 1009.1 |
| 20260506233625 | 46 | 347 | 0.9 | 0.9 | 0.00 | 0.39 | 0.39 | 89 | 1008.8 |
| 20260506233122 | 46 | 349 | 0.0 | 0.0 | 0.00 | 0.39 | 0.39 | 89 | 1008.7 |
| 20260506232618 | 46 | 7 | 0.9 | 0.9 | 0.00 | 0.39 | 0.39 | 89 | 1008.9 |
| 20260506232114 | 46 | 18 | 0.0 | 0.0 | 0.00 | 0.39 | 0.39 | 89 | 1008.5 |
| 20260506231611 | 46 | 12 | 0.0 | 0.0 | 0.00 | 0.39 | 0.39 | 89 | 1008.8 |
| 20260506231109 | 47 | 5 | 0.0 | 0.0 | 0.00 | 0.39 | 0.39 | 89 | 1008.5 |
| 20260506230606 | 47 | 344 | 0.0 | 0.0 | 0.00 | 0.39 | 0.39 | 89 | 1008.5 |
| 20260506230103 | 47 | 0 | 2.6 | 2.6 | 0.00 | 0.39 | 0.39 | 89 | 1008.4 |
| 20260506225559 | 47 | 359 | 0.9 | 1.7 | 0.00 | 0.39 | 0.39 | 89 | 1008.7 |
| 20260506225055 | 47 | 356 | 0.9 | 0.9 | 0.00 | 0.39 | 0.39 | 89 | 1008.8 |
| 20260506224553 | 47 | 1 | 0.0 | 0.0 | 0.00 | 0.39 | 0.39 | 89 | 1008.5 |
| 20260506224049 | 47 | 10 | 0.9 | 1.7 | 0.00 | 0.39 | 0.39 | 89 | 1008.5 |
| 20260506223545 | 47 | 6 | 0.0 | 0.9 | 0.00 | 0.39 | 0.39 | 89 | 1008.8 |
| 20260506223042 | 46 | 346 | 0.0 | 0.9 | 0.00 | 0.39 | 0.39 | 90 | 1008.5 |
| 20260506222539 | 47 | 11 | 0.0 | 0.9 | 0.00 | 0.39 | 0.39 | 90 | 1008.7 |
| 20260506222035 | 47 | 353 | 0.0 | 0.0 | 0.00 | 0.39 | 0.39 | 90 | 1008.7 |
| 20260506221532 | 47 | 352 | 0.9 | 0.9 | 0.00 | 0.39 | 0.39 | 90 | 1008.8 |
| 20260506221030 | 47 | 350 | 0.9 | 0.9 | 0.00 | 0.39 | 0.39 | 89 | 1008.6 |
| 20260506220526 | 47 | 356 | 0.0 | 0.9 | 0.00 | 0.39 | 0.39 | 89 | 1008.7 |
| 20260506220022 | 47 | 350 | 0.0 | 0.0 | 0.00 | 0.39 | 0.39 | 89 | 1008.8 |
| 20260506215519 | 46 | 19 | 1.7 | 1.7 | 0.00 | 0.39 | 0.39 | 89 | 1008.5 |
| 20260506215015 | 46 | 12 | 1.7 | 1.7 | 0.00 | 0.39 | 0.39 | 89 | 1008.8 |
| 20260506214512 | 46 | 342 | 2.6 | 4.3 | 0.00 | 0.39 | 0.39 | 90 | 1008.6 |
| 20260506214009 | 46 | 5 | 2.6 | 4.3 | 0.00 | 0.39 | 0.39 | 90 | 1008.6 |
| 20260506213507 | 46 | 359 | 0.9 | 0.9 | 0.00 | 0.39 | 0.39 | 91 | 1008.5 |
| 20260506213004 | 46 | 8 | 0.9 | 1.7 | 0.00 | 0.39 | 0.39 | 91 | 1008.7 |
| 20260506212500 | 46 | 342 | 0.0 | 0.0 | 0.00 | 0.39 | 0.39 | 91 | 1008.9 |
| 20260506211955 | 47 | 10 | 2.6 | 4.3 | 0.00 | 0.39 | 0.39 | 91 | 1008.6 |
| 20260506211451 | 46 | 7 | 0.9 | 1.7 | 0.00 | 0.39 | 0.39 | 91 | 1008.4 |
| 20260506210948 | 47 | 344 | 0.0 | 0.9 | 0.00 | 0.39 | 0.39 | 91 | 1008.6 |
| 20260506210444 | 47 | 344 | 1.7 | 1.7 | 0.00 | 0.39 | 0.39 | 92 | 1008.5 |
| 20260506205942 | 47 | 17 | 0.9 | 0.9 | 0.00 | 0.39 | 0.39 | 92 | 1008.4 |
| 20260506205438 | 46 | 7 | 2.6 | 2.6 | 0.00 | 0.39 | 0.39 | 92 | 1008.5 |
| 20260506204934 | 46 | 333 | 1.7 | 1.7 | 0.00 | 0.39 | 0.39 | 92 | 1008.6 |
| 20260506204432 | 46 | 354 | 1.7 | 1.7 | 0.00 | 0.39 | 0.39 | 92 | 1008.5 |
| 20260506203929 | 46 | 359 | 0.9 | 0.9 | 0.00 | 0.39 | 0.39 | 93 | 1008.6 |
| 20260506203426 | 46 | 340 | 1.7 | 2.6 | 0.00 | 0.39 | 0.39 | 93 | 1008.9 |
| 20260506202923 | 46 | 349 | 1.7 | 1.7 | 0.00 | 0.39 | 0.39 | 93 | 1008.9 |
| 20260506202421 | 46 | 344 | 2.6 | 2.6 | 0.00 | 0.39 | 0.39 | 93 | 1008.6 |
| 20260506201917 | 46 | 358 | 1.7 | 1.7 | 0.00 | 0.39 | 0.39 | 93 | 1008.7 |
| 20260506201414 | 46 | 348 | 0.9 | 1.7 | 0.00 | 0.39 | 0.39 | 93 | 1008.5 |
| 20260506200911 | 46 | 347 | 0.0 | 0.9 | 0.00 | 0.39 | 0.39 | 94 | 1008.6 |
| 20260506200407 | 46 | 358 | 0.9 | 1.7 | 0.00 | 0.39 | 0.39 | 94 | 1008.6 |
| 20260506195904 | 46 | 352 | 2.6 | 4.3 | 0.05 | 0.39 | 0.39 | 94 | 1008.7 |
| 20260506195401 | 45 | 359 | 0.9 | 0.9 | 0.05 | 0.39 | 0.39 | 94 | 1008.6 |
| 20260506194857 | 45 | 5 | 3.5 | 5.2 | 0.00 | 0.38 | 0.38 | 94 | 1008.9 |
| 20260506194354 | 46 | 334 | 0.9 | 1.7 | 0.00 | 0.38 | 0.38 | 94 | 1008.9 |
| 20260506193852 | 46 | 2 | 1.7 | 1.7 | 0.00 | 0.38 | 0.38 | 95 | 1008.9 |
| 20260506193349 | 45 | 342 | 0.0 | 0.9 | 0.00 | 0.38 | 0.38 | 95 | 1008.8 |
| 20260506192845 | 45 | 347 | 3.5 | 4.3 | 0.00 | 0.38 | 0.38 | 95 | 1008.8 |
| 20260506192342 | 45 | 2 | 3.5 | 6.1 | 0.00 | 0.38 | 0.38 | 95 | 1008.6 |
| 20260506191839 | 45 | 344 | 3.5 | 4.3 | 0.00 | 0.38 | 0.38 | 95 | 1008.5 |
| 20260506191335 | 45 | 355 | 1.7 | 4.3 | 0.00 | 0.38 | 0.38 | 95 | 1008.6 |
| 20260506190832 | 46 | 4 | 4.3 | 5.2 | 0.00 | 0.38 | 0.38 | 95 | 1008.7 |
| 20260506190328 | 45 | 356 | 0.0 | 0.9 | 0.00 | 0.38 | 0.38 | 96 | 1008.6 |
| 20260506185825 | 45 | 33 | 2.6 | 4.3 | 0.00 | 0.38 | 0.38 | 96 | 1008.6 |
| 20260506185322 | 44 | 359 | 3.5 | 4.3 | 0.00 | 0.38 | 0.38 | 96 | 1008.5 |
| 20260506184819 | 44 | 356 | 0.9 | 0.9 | 0.00 | 0.38 | 0.38 | 96 | 1008.6 |
| 20260506184317 | 45 | 49 | 7.0 | 8.7 | 0.00 | 0.38 | 0.38 | 96 | 1009.0 |
| 20260506183814 | 44 | 8 | 1.7 | 2.6 | 0.00 | 0.38 | 0.38 | 96 | 1008.9 |
| 20260506183309 | 45 | 358 | 3.5 | 4.3 | 0.00 | 0.38 | 0.38 | 96 | 1008.9 |
| 20260506182806 | 45 | 10 | 2.6 | 4.3 | 0.00 | 0.38 | 0.38 | 96 | 1008.9 |
| 20260506182306 | 45 | 351 | 0.0 | 0.9 | 0.00 | 0.38 | 0.38 | 96 | 1008.8 |
| 20260506181801 | 45 | 27 | 0.9 | 1.7 | 0.00 | 0.38 | 0.38 | 96 | 1009.0 |
| 20260506181259 | 45 | 4 | 4.3 | 5.2 | 0.00 | 0.38 | 0.38 | 96 | 1009.0 |
| 20260506180756 | 45 | 26 | 1.7 | 2.6 | 0.00 | 0.38 | 0.38 | 96 | 1009.0 |
| 20260506180251 | 45 | 8 | 0.0 | 0.9 | 0.00 | 0.38 | 0.38 | 96 | 1008.9 |
| 20260506175748 | 45 | 34 | 0.0 | 0.0 | 0.00 | 0.38 | 0.38 | 96 | 1009.3 |
| 20260506175245 | 45 | 22 | 2.6 | 2.6 | 0.00 | 0.38 | 0.38 | 96 | 1009.2 |
| 20260506174742 | 44 | 28 | 1.7 | 1.7 | 0.00 | 0.38 | 0.38 | 96 | 1009.1 |
| 20260506174239 | 44 | 29 | 1.7 | 2.6 | 0.00 | 0.38 | 0.38 | 96 | 1009.2 |
| 20260506173737 | 44 | 2 | 2.6 | 2.6 | 0.07 | 0.38 | 0.38 | 96 | 1009.2 |
| 20260506173233 | 45 | 7 | 0.9 | 0.9 | 0.07 | 0.38 | 0.38 | 96 | 1009.5 |
| 20260506172731 | 44 | 23 | 1.7 | 2.6 | 0.00 | 0.37 | 0.37 | 96 | 1009.4 |
| 20260506172227 | 44 | 3 | 1.7 | 2.6 | 0.07 | 0.37 | 0.37 | 96 | 1009.5 |
| 20260506171725 | 44 | 8 | 0.0 | 0.9 | 0.07 | 0.37 | 0.37 | 96 | 1009.5 |
| 20260506171222 | 44 | 38 | 1.7 | 2.6 | 0.05 | 0.36 | 0.36 | 96 | 1009.5 |
| 20260506170719 | 44 | 32 | 1.7 | 1.7 | 0.05 | 0.36 | 0.36 | 96 | 1009.4 |
| 20260506170216 | 44 | 0 | 2.6 | 2.6 | 0.07 | 0.35 | 0.35 | 96 | 1009.7 |
| 20260506165714 | 43 | 27 | 2.6 | 2.6 | 0.07 | 0.35 | 0.35 | 96 | 1009.6 |
| 20260506165211 | 44 | 343 | 2.6 | 6.1 | 0.05 | 0.34 | 0.34 | 96 | 1009.6 |
| 20260506164708 | 44 | 19 | 2.6 | 2.6 | 0.05 | 0.34 | 0.34 | 96 | 1009.4 |
| 20260506164205 | 44 | 34 | 3.5 | 4.3 | 0.07 | 0.33 | 0.33 | 96 | 1009.8 |
| 20260506163701 | 44 | 32 | 2.6 | 5.2 | 0.07 | 0.33 | 0.33 | 96 | 1009.6 |
| 20260506163157 | 44 | 1 | 0.9 | 0.9 | 0.05 | 0.32 | 0.32 | 96 | 1009.3 |
| 20260506162653 | 44 | 4 | 1.7 | 1.7 | 0.12 | 0.32 | 0.32 | 96 | 1010.0 |
| 20260506162150 | 44 | 345 | 2.6 | 4.3 | 0.12 | 0.31 | 0.31 | 96 | 1009.8 |
| 20260506161648 | 44 | 357 | 0.0 | 0.0 | 0.05 | 0.30 | 0.30 | 96 | 1009.9 |
| 20260506161144 | 44 | 2 | 1.7 | 2.6 | 0.07 | 0.29 | 0.29 | 96 | 1009.9 |
| 20260506160642 | 44 | 355 | 0.9 | 0.9 | 0.12 | 0.29 | 0.29 | 96 | 1009.7 |
| 20260506160139 | 44 | 351 | 2.6 | 4.3 | 0.05 | 0.28 | 0.28 | 96 | 1010.0 |
| 20260506155637 | 44 | 2 | 1.7 | 1.7 | 0.07 | 0.27 | 0.27 | 96 | 1010.0 |
| 20260506155134 | 44 | 5 | 2.6 | 2.6 | 0.07 | 0.27 | 0.27 | 96 | 1010.0 |
| 20260506153236 | 44 | 31 | 1.7 | 1.7 | 0.14 | 0.25 | 0.25 | 96 | 1010.1 |
| 20260506152733 | 44 | 355 | 0.0 | 0.0 | 0.07 | 0.24 | 0.24 | 96 | 1010.3 |
| 20260506152230 | 44 | 8 | 4.3 | 5.2 | 0.05 | 0.23 | 0.23 | 95 | 1010.3 |
| 20260506151729 | 44 | 21 | 1.7 | 1.7 | 0.12 | 0.23 | 0.23 | 95 | 1010.3 |
| 20260506151225 | 44 | 1 | 0.0 | 0.9 | 0.12 | 0.22 | 0.22 | 95 | 1010.5 |
| 20260506150722 | 44 | 24 | 0.9 | 1.7 | 0.05 | 0.21 | 0.21 | 95 | 1010.5 |
| 20260506150219 | 44 | 21 | 0.0 | 0.0 | 0.07 | 0.20 | 0.20 | 95 | 1010.2 |
| 20260506145716 | 44 | 351 | 2.6 | 4.3 | 0.07 | 0.20 | 0.20 | 95 | 1010.4 |
| 20260506145212 | 44 | 0 | 0.9 | 1.7 | 0.05 | 0.19 | 0.19 | 95 | 1010.4 |
| 20260506144710 | 44 | 3 | 1.7 | 2.6 | 0.05 | 0.19 | 0.19 | 95 | 1010.1 |
| 20260506144207 | 44 | 12 | 1.7 | 1.7 | 0.07 | 0.18 | 0.18 | 95 | 1010.0 |
| 20260506143704 | 44 | 20 | 2.6 | 5.2 | 0.00 | 0.17 | 0.17 | 95 | 1009.9 |
| 20260506143202 | 44 | 0 | 0.9 | 1.7 | 0.05 | 0.17 | 0.17 | 95 | 1009.9 |
| 20260506142701 | 44 | 354 | 0.9 | 0.9 | 0.05 | 0.17 | 0.17 | 95 | 1009.9 |
| 20260506142158 | 44 | 47 | 2.6 | 4.3 | 0.07 | 0.16 | 0.16 | 95 | 1010.1 |
| 20260506141655 | 44 | 12 | 0.9 | 0.9 | 0.07 | 0.16 | 0.16 | 95 | 1010.3 |
| 20260506141154 | 44 | 352 | 0.9 | 0.9 | 0.00 | 0.15 | 0.15 | 94 | 1010.4 |
| 20260506140651 | 44 | 353 | 0.0 | 0.0 | 0.05 | 0.15 | 0.15 | 94 | 1010.0 |
| 20260506140148 | 44 | 352 | 1.7 | 2.6 | 0.05 | 0.15 | 0.15 | 94 | 1010.2 |
| 20260506135645 | 44 | 0 | 0.9 | 1.7 | 0.07 | 0.14 | 0.14 | 94 | 1010.4 |
| 20260506135141 | 44 | 354 | 0.0 | 0.0 | 0.07 | 0.14 | 0.14 | 94 | 1010.3 |
| 20260506134638 | 44 | 356 | 0.0 | 0.9 | 0.05 | 0.13 | 0.13 | 94 | 1010.1 |
| 20260506134133 | 44 | 7 | 0.9 | 0.9 | 0.05 | 0.13 | 0.13 | 94 | 1010.1 |
| 20260506133631 | 44 | 25 | 1.7 | 2.6 | 0.00 | 0.12 | 0.12 | 93 | 1010.1 |
| 20260506133128 | 44 | 358 | 0.9 | 1.7 | 0.07 | 0.12 | 0.12 | 93 | 1009.8 |
| 20260506132625 | 44 | 6 | 1.7 | 2.6 | 0.07 | 0.12 | 0.12 | 93 | 1009.8 |
| 20260506132122 | 44 | 352 | 0.9 | 1.7 | 0.00 | 0.11 | 0.11 | 93 | 1010.1 |
| 20260506131620 | 44 | 5 | 0.0 | 0.9 | 0.00 | 0.11 | 0.11 | 93 | 1009.9 |
| 20260506131116 | 44 | 356 | 0.0 | 0.0 | 0.00 | 0.11 | 0.11 | 93 | 1010.2 |
| 20260506130613 | 44 | 346 | 3.5 | 4.3 | 0.00 | 0.11 | 0.11 | 93 | 1010.2 |
| 20260506130110 | 45 | 22 | 0.9 | 1.7 | 0.07 | 0.11 | 0.11 | 93 | 1010.1 |
| 20260506125608 | 45 | 358 | 0.9 | 0.9 | 0.07 | 0.11 | 0.11 | 93 | 1009.9 |
| 20260506125106 | 44 | 348 | 0.9 | 1.7 | 0.00 | 0.10 | 0.10 | 93 | 1010.1 |
| 20260506124603 | 45 | 328 | 0.9 | 1.7 | 0.05 | 0.10 | 0.10 | 93 | 1010.1 |
| 20260506124101 | 45 | 354 | 1.7 | 1.7 | 0.05 | 0.10 | 0.10 | 92 | 1010.0 |
| 20260506123558 | 44 | 345 | 0.9 | 0.9 | 0.07 | 0.09 | 0.09 | 92 | 1010.3 |
| 20260506123057 | 45 | 347 | 0.0 | 0.9 | 0.07 | 0.09 | 0.09 | 92 | 1010.3 |
| 20260506122553 | 45 | 355 | 0.0 | 0.0 | 0.00 | 0.08 | 0.08 | 92 | 1010.7 |
| 20260506122051 | 45 | 352 | 0.0 | 0.0 | 0.05 | 0.08 | 0.08 | 92 | 1010.4 |
| 20260506121548 | 45 | 354 | 0.0 | 0.0 | 0.05 | 0.08 | 0.08 | 91 | 1010.5 |
| 20260506121044 | 45 | 348 | 0.0 | 0.0 | 0.00 | 0.07 | 0.07 | 91 | 1010.4 |
| 20260506120543 | 45 | 3 | 1.7 | 1.7 | 0.07 | 0.07 | 0.07 | 91 | 1010.3 |
| 20260506120040 | 45 | 349 | 0.0 | 0.0 | 0.07 | 0.07 | 0.07 | 91 | 1010.5 |
| 20260506115538 | 45 | 342 | 0.0 | 0.0 | 0.07 | 0.07 | 0.07 | 90 | 1010.7 |
| 20260506115036 | 45 | 345 | 0.0 | 0.0 | 0.05 | 0.06 | 0.06 | 90 | 1010.7 |
| 20260506114533 | 45 | 332 | 0.9 | 0.9 | 0.05 | 0.06 | 0.06 | 90 | 1011.0 |
| 20260506114031 | 45 | 338 | 0.9 | 0.9 | 0.07 | 0.05 | 0.05 | 89 | 1010.8 |
| 20260506113529 | 45 | 341 | 0.0 | 0.0 | 0.07 | 0.05 | 0.05 | 88 | 1010.7 |
| 20260506113026 | 46 | 339 | 0.9 | 0.9 | 0.05 | 0.04 | 0.04 | 88 | 1010.7 |
| 20260506112522 | 46 | 335 | 0.9 | 0.9 | 0.05 | 0.04 | 0.04 | 87 | 1010.7 |
| 20260506112020 | 46 | 338 | 0.9 | 0.9 | 0.00 | 0.03 | 0.03 | 87 | 1010.3 |
| 20260506111518 | 46 | 346 | 0.0 | 0.0 | 0.07 | 0.03 | 0.03 | 86 | 1010.3 |
| 20260506111015 | 46 | 347 | 0.0 | 0.9 | 0.07 | 0.03 | 0.03 | 86 | 1010.2 |
| 20260506110512 | 46 | 340 | 0.9 | 0.9 | 0.00 | 0.02 | 0.02 | 86 | 1010.4 |
| 20260506110009 | 46 | 342 | 0.0 | 0.9 | 0.00 | 0.02 | 0.02 | 86 | 1010.4 |
| 20260506105505 | 46 | 348 | 0.9 | 0.9 | 0.00 | 0.02 | 0.02 | 86 | 1010.2 |
| 20260506105003 | 47 | 350 | 0.9 | 0.9 | 0.00 | 0.02 | 0.02 | 86 | 1010.1 |
| 20260506104501 | 47 | 343 | 0.0 | 0.0 | 0.05 | 0.02 | 0.02 | 86 | 1010.3 |
| 20260506103958 | 47 | 345 | 0.9 | 0.9 | 0.05 | 0.02 | 0.02 | 85 | 1010.1 |
| 20260506103455 | 48 | 346 | 0.0 | 0.0 | 0.00 | 0.01 | 0.01 | 85 | 1010.2 |
| 20260506102952 | 48 | 345 | 0.0 | 0.0 | 0.00 | 0.01 | 0.01 | 84 | 1010.1 |
| 20260506102450 | 48 | 345 | 0.0 | 0.0 | 0.00 | 0.01 | 0.01 | 84 | 1009.8 |
| 20260506101947 | 48 | 351 | 0.0 | 0.0 | 0.00 | 0.01 | 0.01 | 83 | 1009.9 |
| 20260506101444 | 48 | 354 | 0.0 | 0.0 | 0.00 | 0.01 | 0.01 | 82 | 1009.6 |
| 20260506100941 | 48 | 359 | 0.9 | 0.9 | 0.00 | 0.01 | 0.01 | 82 | 1009.6 |
| 20260506100439 | 48 | 347 | 0.0 | 0.0 | 0.00 | 0.01 | 0.01 | 82 | 1009.8 |
| 20260506095937 | 48 | 354 | 0.0 | 0.0 | 0.00 | 0.01 | 0.01 | 82 | 1009.7 |
| 20260506095435 | 48 | 355 | 0.9 | 0.9 | 0.00 | 0.01 | 0.01 | 83 | 1009.9 |
| 20260506094931 | 48 | 341 | 0.0 | 0.0 | 0.00 | 0.01 | 0.01 | 84 | 1009.9 |
| 20260506094430 | 48 | 357 | 0.9 | 0.9 | 0.00 | 0.01 | 0.01 | 85 | 1009.9 |
| 20260506093927 | 48 | 352 | 0.0 | 0.0 | 0.00 | 0.01 | 0.01 | 85 | 1009.7 |
| 20260506093425 | 48 | 352 | 0.0 | 0.0 | 0.00 | 0.01 | 0.01 | 84 | 1009.8 |
| 20260506092922 | 48 | 344 | 0.9 | 0.9 | 0.00 | 0.01 | 0.01 | 84 | 1009.8 |
| 20260506092420 | 48 | 358 | 1.7 | 2.6 | 0.00 | 0.01 | 0.01 | 84 | 1009.8 |
| 20260506091916 | 49 | 346 | 0.0 | 0.0 | 0.07 | 0.01 | 0.01 | 83 | 1010.3 |
| 20260506091415 | 49 | 348 | 0.9 | 0.9 | 0.07 | 0.01 | 0.01 | 81 | 1010.1 |
| 20260506090911 | 49 | 334 | 0.9 | 0.9 | 0.00 | 0.00 | 0.00 | 80 | 1010.4 |
| 20260506090409 | 49 | 337 | 0.9 | 0.9 | 0.00 | 0.00 | 0.00 | 78 | 1009.9 |
| 20260506085906 | 50 | 332 | 0.9 | 0.9 | 0.00 | 0.00 | 0.00 | 77 | 1010.3 |
| 20260506085402 | 50 | 331 | 0.0 | 0.9 | 0.00 | 0.00 | 0.00 | 76 | 1010.5 |
| 20260506084858 | 50 | 328 | 0.9 | 0.9 | 0.00 | 0.00 | 0.00 | 74 | 1010.6 |
| 20260506084355 | 50 | 335 | 0.9 | 1.7 | 0.00 | 0.00 | 0.00 | 72 | 1010.1 |
| 20260506083852 | 51 | 349 | 0.9 | 1.7 | 0.00 | 0.00 | 0.00 | 71 | 1010.2 |
| 20260506083350 | 51 | 315 | 1.7 | 1.7 | 0.00 | 0.00 | 0.00 | 71 | 1010.4 |
| 20260506082847 | 51 | 328 | 0.9 | 1.7 | 0.00 | 0.00 | 0.00 | 72 | 1010.0 |
| 20260506082343 | 51 | 321 | 0.9 | 1.7 | 0.00 | 0.00 | 0.00 | 72 | 1009.7 |
| 20260506081839 | 51 | 311 | 1.7 | 1.7 | 0.00 | 0.00 | 0.00 | 73 | 1010.0 |
| 20260506081338 | 51 | 322 | 1.7 | 1.7 | 0.00 | 0.00 | 0.00 | 74 | 1010.0 |
| 20260506080835 | 51 | 327 | 0.9 | 0.9 | 0.00 | 0.00 | 0.00 | 74 | 1009.9 |
| 20260506080331 | 51 | 330 | 0.9 | 0.9 | 0.00 | 0.00 | 0.00 | 74 | 1010.0 |
| 20260506073315 | 51 | 302 | 1.7 | 1.7 | 0.00 | 0.00 | 0.00 | 74 | 1009.4 |
| 20260506072812 | 51 | 330 | 1.7 | 1.7 | 0.00 | 0.00 | 0.00 | 74 | 1009.8 |
| 20260506072310 | 52 | 311 | 1.7 | 1.7 | 0.00 | 0.00 | 0.00 | 73 | 1009.8 |
| 20260506071807 | 52 | 331 | 0.9 | 0.9 | 0.00 | 0.00 | 0.00 | 73 | 1009.9 |
| 20260506071305 | 52 | 335 | 0.0 | 0.9 | 0.00 | 0.00 | 0.00 | 72 | 1010.1 |
| 20260506070802 | 52 | 334 | 0.9 | 1.7 | 0.00 | 0.00 | 0.00 | 72 | 1009.9 |
| 20260506070259 | 52 | 316 | 1.7 | 1.7 | 0.00 | 0.00 | 0.00 | 72 | 1009.8 |
| 20260506062236 | 53 | 344 | 0.0 | 0.0 | 0.00 | 0.00 | 0.00 | 76 | 1009.9 |
| 20260506061732 | 53 | 338 | 0.0 | 0.0 | 0.00 | 0.00 | 0.00 | 76 | 1009.9 |
| 20260506061230 | 53 | 341 | 0.9 | 0.9 | 0.00 | 0.00 | 0.00 | 77 | 1009.8 |
| 20260506060728 | 53 | 345 | 0.0 | 0.0 | 0.00 | 0.00 | 0.00 | 77 | 1009.6 |
| 20260506060225 | 53 | 0 | 2.6 | 2.6 | 0.00 | 0.00 | 0.00 | 77 | 1009.7 |
| 20260506051157 | 54 | 326 | 2.6 | 4.3 | 0.00 | 0.00 | 0.00 | 79 | 1009.8 |
| 20260506050655 | 54 | 298 | 2.6 | 4.3 | 0.00 | 0.00 | 0.00 | 79 | 1009.8 |
| 20260506050152 | 55 | 326 | 2.6 | 4.3 | 0.00 | 0.00 | 0.00 | 78 | 1010.1 |
| 20260506044643 | 55 | 311 | 4.3 | 7.0 | 0.00 | 0.00 | 0.00 | 77 | 1009.9 |
| 20260506044139 | 55 | 274 | 2.6 | 2.6 | 0.00 | 0.00 | 0.00 | 77 | 1009.6 |
| 20260506043637 | 55 | 269 | 2.6 | 2.6 | 0.00 | 0.00 | 0.00 | 77 | 1009.3 |
| 20260506043135 | 55 | 269 | 5.2 | 6.1 | 0.00 | 0.00 | 0.00 | 76 | 1009.0 |
| 20260506042633 | 55 | 298 | 3.5 | 6.1 | 0.00 | 0.00 | 0.00 | 76 | 1009.3 |
| 20260506042131 | 55 | 268 | 0.9 | 1.7 | 0.00 | 0.00 | 0.00 | 76 | 1009.5 |
| 20260506041630 | 55 | 267 | 6.1 | 9.6 | 0.00 | 0.00 | 0.00 | 76 | 1009.0 |
| 20260506041126 | 56 | 248 | 2.6 | 5.2 | 0.00 | 0.00 | 0.00 | 75 | 1008.9 |
| 20260506040624 | 56 | 261 | 2.6 | 6.1 | 0.00 | 0.00 | 0.00 | 75 | 1008.7 |
| 20260506040120 | 56 | 246 | 5.2 | 7.0 | 0.00 | 0.00 | 0.00 | 74 | 1008.5 |
| 20260506035617 | 56 | 297 | 2.6 | 4.3 | 0.00 | 0.02 | 0.02 | 73 | 1008.3 |
| 20260506035114 | 57 | 279 | 2.6 | 4.3 | 0.00 | 0.02 | 0.02 | 73 | 1008.5 |
| 20260506034611 | 57 | 275 | 3.5 | 5.2 | 0.00 | 0.02 | 0.02 | 73 | 1008.2 |
| 20260506034108 | 57 | 252 | 7.0 | 8.7 | 0.00 | 0.02 | 0.02 | 73 | 1007.8 |
| 20260506033605 | 57 | 317 | 4.3 | 5.2 | 0.00 | 0.02 | 0.02 | 73 | 1007.6 |
| 20260506033102 | 57 | 284 | 3.5 | 4.3 | 0.00 | 0.02 | 0.02 | 73 | 1007.2 |
| 20260506032559 | 57 | 287 | 6.1 | 7.0 | 0.00 | 0.02 | 0.02 | 72 | 1007.6 |
| 20260506032056 | 57 | 316 | 1.7 | 2.6 | 0.00 | 0.02 | 0.02 | 72 | 1007.6 |
| 20260506031554 | 58 | 293 | 5.2 | 7.0 | 0.00 | 0.02 | 0.02 | 71 | 1008.0 |
| 20260506031050 | 58 | 328 | 5.2 | 6.1 | 0.00 | 0.02 | 0.02 | 71 | 1007.9 |
| 20260506030549 | 58 | 291 | 4.3 | 5.2 | 0.00 | 0.02 | 0.02 | 70 | 1008.2 |
| 20260506030045 | 58 | 288 | 4.3 | 6.1 | 0.00 | 0.02 | 0.02 | 69 | 1008.2 |
| 20260506025542 | 59 | 286 | 4.3 | 6.1 | 0.00 | 0.02 | 0.02 | 68 | 1008.2 |
| 20260506025038 | 59 | 290 | 3.5 | 4.3 | 0.00 | 0.02 | 0.02 | 67 | 1008.3 |
| 20260506024535 | 59 | 290 | 4.3 | 6.1 | 0.00 | 0.02 | 0.02 | 66 | 1008.4 |
| 20260506024031 | 60 | 268 | 2.6 | 2.6 | 0.00 | 0.02 | 0.02 | 66 | 1008.4 |
| 20260506023528 | 60 | 300 | 0.9 | 1.7 | 0.00 | 0.02 | 0.02 | 65 | 1008.4 |
| 20260506023026 | 60 | 243 | 2.6 | 4.3 | 0.00 | 0.02 | 0.02 | 64 | 1008.2 |
| 20260506022523 | 60 | 261 | 7.8 | 8.7 | 0.00 | 0.02 | 0.02 | 64 | 1008.3 |
| 20260506022020 | 60 | 299 | 1.7 | 1.7 | 0.00 | 0.02 | 0.02 | 63 | 1008.2 |
| 20260506021518 | 61 | 277 | 4.3 | 7.0 | 0.00 | 0.02 | 0.02 | 62 | 1008.1 |
| 20260506021015 | 61 | 273 | 6.1 | 7.8 | 0.00 | 0.02 | 0.02 | 61 | 1007.9 |
| 20260506020512 | 62 | 326 | 1.7 | 1.7 | 0.00 | 0.02 | 0.02 | 60 | 1008.2 |
| 20260506020010 | 62 | 322 | 2.6 | 4.3 | 0.00 | 0.02 | 0.02 | 59 | 1007.8 |
| 20260506015507 | 62 | 273 | 2.6 | 4.3 | 0.00 | 0.02 | 0.02 | 58 | 1007.7 |
| 20260506015004 | 62 | 278 | 2.6 | 2.6 | 0.00 | 0.02 | 0.02 | 58 | 1008.0 |
| 20260506014501 | 62 | 312 | 3.5 | 5.2 | 0.00 | 0.02 | 0.02 | 58 | 1008.0 |
| 20260506013957 | 63 | 330 | 3.5 | 6.1 | 0.00 | 0.02 | 0.02 | 57 | 1007.8 |
| 20260506013455 | 63 | 255 | 5.2 | 7.0 | 0.00 | 0.02 | 0.02 | 57 | 1007.7 |
| 20260506012951 | 63 | 234 | 5.2 | 7.0 | 0.00 | 0.02 | 0.02 | 57 | 1007.7 |
| 20260506012448 | 63 | 336 | 2.6 | 2.6 | 0.00 | 0.02 | 0.02 | 57 | 1007.7 |
| 20260506011945 | 64 | 290 | 4.3 | 7.8 | 0.00 | 0.02 | 0.02 | 57 | 1007.5 |
| 20260506011442 | 64 | 287 | 2.6 | 4.3 | 0.00 | 0.02 | 0.02 | 58 | 1007.3 |